createdAt,value
2017-07-11T00:02:03.894Z,90.40
2017-07-11T00:04:32.872Z,90.50
2017-07-11T00:07:01.049Z,90.50
2017-07-11T00:09:29.229Z,90.60
2017-07-11T00:11:57.443Z,90.60
2017-07-11T00:14:25.632Z,90.50
2017-07-11T00:16:53.811Z,90.50
2017-07-11T00:19:22.019Z,90.50
2017-07-11T00:21:50.192Z,90.70
2017-07-11T00:24:18.371Z,90.70
2017-07-11T00:26:46.585Z,90.90
2017-07-11T00:29:14.761Z,90.80
2017-07-11T00:31:42.941Z,90.70
2017-07-11T00:34:11.146Z,90.70
2017-07-11T00:36:39.315Z,90.70
2017-07-11T00:39:07.479Z,90.60
2017-07-11T00:41:35.666Z,90.60
2017-07-11T00:44:03.862Z,90.60
2017-07-11T00:46:32.037Z,90.50
2017-07-11T00:49:00.214Z,90.50
2017-07-11T00:51:28.373Z,90.50
2017-07-11T00:53:56.548Z,90.80
2017-07-11T00:56:24.753Z,91.10
2017-07-11T00:58:52.910Z,91.30
2017-07-11T01:01:21.082Z,91.30
2017-07-11T01:03:49.271Z,91.20
2017-07-11T01:06:17.422Z,91.30
2017-07-11T01:08:45.583Z,91.50
2017-07-11T01:11:13.760Z,91.90
2017-07-11T01:13:41.944Z,91.90
2017-07-11T01:16:10.101Z,92.00
2017-07-11T01:18:38.302Z,91.90
2017-07-11T01:21:06.484Z,92.00
2017-07-11T01:23:34.661Z,92.30
2017-07-11T01:26:02.862Z,92.50
2017-07-11T01:28:31.019Z,92.50
2017-07-11T01:30:59.963Z,92.60
2017-07-11T01:33:28.473Z,92.40
2017-07-11T01:35:56.654Z,92.40
2017-07-11T01:38:24.804Z,92.30
2017-07-11T01:40:52.978Z,92.40
2017-07-11T01:43:21.754Z,92.50
2017-07-11T01:45:49.945Z,92.30
2017-07-11T01:48:18.150Z,92.30
2017-07-11T01:50:46.333Z,92.00
2017-07-11T01:53:14.491Z,91.60
2017-07-11T01:55:42.678Z,91.80
2017-07-11T01:58:10.853Z,92.00
2017-07-11T02:00:39.027Z,91.80
2017-07-11T02:03:07.223Z,91.50
2017-07-11T02:05:36.164Z,91.60
2017-07-11T02:08:04.344Z,91.50
2017-07-11T02:10:32.542Z,91.20
2017-07-11T02:13:00.709Z,91.20
2017-07-11T02:15:28.880Z,91.10
2017-07-11T02:17:57.072Z,91.60
2017-07-11T02:20:25.232Z,91.80
2017-07-11T02:22:53.390Z,91.90
2017-07-11T02:25:21.585Z,91.80
2017-07-11T02:27:49.758Z,91.70
2017-07-11T02:30:17.927Z,91.70
2017-07-11T02:32:46.110Z,91.90
2017-07-11T02:35:14.286Z,91.70
2017-07-11T02:37:42.464Z,91.70
2017-07-11T02:40:10.654Z,91.80
2017-07-11T02:42:39.601Z,91.70
2017-07-11T02:45:07.746Z,91.70
2017-07-11T02:47:35.931Z,91.70
2017-07-11T02:50:04.108Z,91.60
2017-07-11T02:52:32.280Z,91.60
2017-07-11T02:55:00.483Z,91.80
2017-07-11T02:57:28.642Z,91.80
2017-07-11T02:59:56.821Z,92.00
2017-07-11T03:02:25.008Z,91.90
2017-07-11T03:04:53.187Z,91.80
2017-07-11T03:07:21.339Z,91.90
2017-07-11T03:09:49.573Z,92.20
2017-07-11T03:12:18.506Z,92.70
2017-07-11T03:14:46.686Z,92.70
2017-07-11T03:17:14.884Z,92.40
2017-07-11T03:19:43.039Z,92.30
2017-07-11T03:22:11.217Z,92.10
2017-07-11T03:24:39.422Z,92.10
2017-07-11T03:27:07.601Z,92.40
2017-07-11T03:29:36.532Z,92.30
2017-07-11T03:32:04.732Z,92.10
2017-07-11T03:34:32.903Z,92.50
2017-07-11T03:37:01.077Z,92.50
2017-07-11T03:39:29.262Z,92.30
2017-07-11T03:41:57.410Z,92.30
2017-07-11T03:44:25.582Z,92.30
2017-07-11T03:46:53.793Z,92.10
2017-07-11T03:49:21.965Z,91.90
2017-07-11T03:51:50.144Z,91.90
2017-07-11T03:54:18.327Z,91.90
2017-07-11T03:56:46.501Z,91.80
2017-07-11T03:59:14.681Z,91.90
2017-07-11T04:01:42.885Z,91.70
2017-07-11T04:04:11.083Z,92.00
2017-07-11T04:06:39.266Z,91.70
2017-07-11T04:09:07.453Z,91.80
2017-07-11T04:11:35.634Z,92.00
2017-07-11T04:14:03.804Z,91.90
2017-07-11T04:16:31.998Z,92.10
2017-07-11T04:19:00.157Z,91.80
2017-07-11T04:21:28.326Z,91.80
2017-07-11T04:23:56.537Z,91.90
2017-07-11T04:26:24.708Z,92.10
2017-07-11T04:28:52.869Z,92.10
2017-07-11T04:31:21.069Z,92.10
2017-07-11T04:33:49.234Z,92.00
2017-07-11T04:36:17.407Z,92.30
2017-07-11T04:38:45.594Z,91.90
2017-07-11T04:41:13.765Z,91.80
2017-07-11T04:43:41.918Z,91.90
2017-07-11T04:46:10.119Z,91.80
2017-07-11T04:48:38.283Z,91.80
2017-07-11T04:51:06.454Z,91.80
2017-07-11T04:53:34.669Z,92.00
2017-07-11T04:56:03.606Z,92.20
2017-07-11T04:58:31.776Z,92.20
2017-07-11T05:00:59.976Z,92.40
2017-07-11T05:03:28.130Z,92.30
2017-07-11T05:05:56.293Z,92.20
2017-07-11T05:08:24.497Z,92.00
2017-07-11T05:10:52.651Z,92.10
2017-07-11T05:13:20.825Z,92.20
2017-07-11T05:15:49.039Z,92.20
2017-07-11T05:18:17.212Z,92.20
2017-07-11T05:20:45.385Z,92.20
2017-07-11T05:23:13.561Z,92.00
2017-07-11T05:25:41.736Z,92.10
2017-07-11T05:28:09.913Z,92.00
2017-07-11T05:30:38.107Z,92.10
2017-07-11T05:33:06.268Z,92.10
2017-07-11T05:35:35.200Z,92.40
2017-07-11T05:38:03.407Z,92.30
2017-07-11T05:40:31.590Z,92.50
2017-07-11T05:42:59.747Z,92.50
2017-07-11T05:45:27.950Z,92.40
2017-07-11T05:47:56.094Z,92.40
2017-07-11T05:50:24.306Z,92.50
2017-07-11T05:52:52.469Z,92.40
2017-07-11T05:55:20.645Z,92.50
2017-07-11T05:57:49.663Z,92.50
2017-07-11T06:00:18.646Z,92.60
2017-07-11T06:02:46.814Z,92.60
2017-07-11T06:05:14.989Z,92.50
2017-07-11T06:07:43.499Z,92.50
2017-07-11T06:10:12.428Z,92.80
2017-07-11T06:12:40.605Z,92.70
2017-07-11T06:15:08.791Z,92.70
2017-07-11T06:17:36.967Z,92.60
2017-07-11T06:20:05.892Z,93.10
2017-07-11T06:22:34.084Z,93.10
2017-07-11T06:25:02.253Z,93.10
2017-07-11T06:27:30.426Z,93.30
2017-07-11T06:29:58.606Z,92.90
2017-07-11T06:32:26.777Z,92.90
2017-07-11T06:34:54.934Z,93.20
2017-07-11T06:37:23.165Z,93.40
2017-07-11T06:39:51.342Z,93.40
2017-07-11T06:42:19.494Z,93.20
2017-07-11T06:44:47.703Z,93.30
2017-07-11T06:47:16.624Z,93.10
2017-07-11T06:49:44.801Z,93.00
2017-07-11T06:52:12.988Z,92.90
2017-07-11T06:54:41.148Z,93.00
2017-07-11T06:57:09.321Z,93.10
2017-07-11T06:59:37.519Z,92.90
2017-07-11T07:02:05.698Z,92.90
2017-07-11T07:04:33.872Z,92.90
2017-07-11T07:07:02.069Z,92.60
2017-07-11T07:09:30.247Z,92.40
2017-07-11T07:11:58.425Z,92.50
2017-07-11T07:14:26.606Z,92.60
2017-07-11T07:16:54.782Z,92.50
2017-07-11T07:19:22.980Z,92.50
2017-07-11T07:21:51.946Z,92.50
2017-07-11T07:24:20.107Z,92.50
2017-07-11T07:26:48.321Z,92.10
2017-07-11T07:29:17.275Z,91.70
2017-07-11T07:31:45.435Z,91.60
2017-07-11T07:34:13.609Z,91.60
2017-07-11T07:36:41.809Z,90.90
2017-07-11T07:39:09.963Z,91.20
2017-07-11T07:41:38.138Z,90.80
2017-07-11T07:44:06.332Z,90.90
2017-07-11T07:46:34.501Z,90.50
2017-07-11T07:49:02.659Z,90.40
2017-07-11T07:51:30.837Z,90.90
2017-07-11T07:53:58.986Z,90.90
2017-07-11T07:56:27.149Z,90.50
2017-07-11T07:58:55.336Z,90.50
2017-07-11T08:01:23.507Z,90.40
2017-07-11T08:03:51.655Z,90.20
2017-07-11T08:06:20.602Z,90.70
2017-07-11T08:08:48.777Z,90.70
2017-07-11T08:11:16.934Z,90.70
2017-07-11T08:13:45.134Z,90.40
2017-07-11T08:16:13.311Z,90.40
2017-07-11T08:18:41.468Z,90.50
2017-07-11T08:21:09.652Z,88.80
2017-07-11T08:23:37.829Z,86.70
2017-07-11T08:26:05.987Z,86.10
2017-07-11T08:28:34.180Z,86.90
2017-07-11T08:31:02.378Z,82.00
2017-07-11T08:33:30.532Z,74.90
2017-07-11T08:35:58.752Z,66.70
2017-07-11T08:38:26.922Z,59.50
2017-07-11T08:40:55.105Z,58.30
2017-07-11T08:43:23.301Z,57.80
2017-07-11T08:45:51.477Z,55.00
2017-07-11T08:48:19.649Z,52.40
2017-07-11T08:50:48.196Z,51.60
2017-07-11T08:53:16.381Z,54.50
2017-07-11T08:55:44.563Z,57.40
2017-07-11T08:58:12.769Z,59.70
2017-07-11T09:00:40.950Z,64.90
2017-07-11T09:03:09.106Z,66.80
2017-07-11T09:05:37.295Z,67.10
2017-07-11T09:08:05.469Z,68.60
2017-07-11T09:10:33.637Z,71.30
2017-07-11T09:13:01.842Z,73.20
2017-07-11T09:15:30.002Z,72.90
2017-07-11T09:17:58.183Z,72.50
2017-07-11T09:20:26.368Z,72.90
2017-07-11T09:22:54.544Z,70.40
2017-07-11T09:25:22.703Z,70.80
2017-07-11T09:27:50.912Z,68.70
2017-07-11T09:30:19.839Z,58.50
2017-07-11T09:32:48.022Z,58.50
2017-07-11T09:35:16.208Z,52.60
2017-07-11T09:37:44.361Z,49.60
2017-07-11T09:40:12.536Z,47.00
2017-07-11T09:42:40.723Z,46.00
2017-07-11T09:45:08.878Z,47.30
2017-07-11T09:47:37.056Z,47.60
2017-07-11T09:50:05.273Z,47.90
2017-07-11T09:52:33.454Z,50.30
2017-07-11T09:55:01.628Z,52.00
2017-07-11T09:57:29.818Z,54.80
2017-07-11T09:59:58.747Z,56.50
2017-07-11T10:02:26.928Z,56.50
2017-07-11T10:04:55.137Z,56.80
2017-07-11T10:07:23.322Z,52.50
2017-07-11T10:09:51.501Z,53.70
2017-07-11T10:12:19.704Z,52.70
2017-07-11T10:14:47.859Z,50.00
2017-07-11T10:17:16.013Z,46.90
2017-07-11T10:19:44.195Z,42.20
2017-07-11T10:22:12.366Z,42.50
2017-07-11T10:24:40.549Z,42.20
2017-07-11T10:27:08.757Z,42.10
2017-07-11T10:29:36.936Z,41.50
2017-07-11T10:32:05.122Z,42.80
2017-07-11T10:34:33.325Z,39.40
2017-07-11T10:37:01.502Z,38.10
2017-07-11T10:39:29.657Z,40.30
2017-07-11T10:41:57.848Z,40.50
2017-07-11T10:44:25.998Z,35.60
2017-07-11T10:46:54.174Z,34.90
2017-07-11T10:49:22.380Z,34.10
2017-07-11T10:51:50.529Z,36.30
2017-07-11T10:54:18.690Z,39.70
2017-07-11T10:56:46.879Z,43.70
2017-07-11T10:59:15.034Z,46.80
2017-07-11T11:01:43.196Z,50.20
2017-07-11T11:04:12.184Z,66.20
2017-07-11T11:06:41.115Z,71.00
2017-07-11T11:09:09.275Z,70.90
2017-07-11T11:11:37.464Z,73.50
2017-07-11T11:14:05.638Z,73.70
2017-07-11T11:16:33.820Z,75.10
2017-07-11T11:19:02.028Z,75.50
2017-07-11T11:21:30.200Z,76.50
2017-07-11T11:23:58.392Z,78.80
2017-07-11T11:26:26.597Z,76.30
2017-07-11T11:28:54.761Z,73.70
2017-07-11T11:31:23.701Z,62.40
2017-07-11T11:33:51.909Z,62.30
2017-07-11T11:36:20.147Z,58.50
2017-07-11T11:38:48.351Z,54.60
2017-07-11T11:41:16.920Z,53.70
2017-07-11T11:43:45.080Z,54.30
2017-07-11T11:46:13.242Z,56.90
2017-07-11T11:48:41.447Z,56.70
2017-07-11T11:51:09.603Z,58.00
2017-07-11T11:53:37.774Z,58.30
2017-07-11T11:56:05.977Z,59.80
2017-07-11T11:58:34.132Z,59.70
2017-07-11T12:01:02.308Z,70.20
2017-07-11T12:03:30.513Z,82.00
2017-07-11T12:05:58.681Z,81.20
2017-07-11T12:08:26.865Z,83.70
2017-07-11T12:10:55.073Z,88.50
2017-07-11T12:13:23.255Z,89.40
2017-07-11T12:15:51.435Z,90.00
2017-07-11T12:18:19.626Z,90.40
2017-07-11T12:20:47.779Z,91.40
2017-07-11T12:23:15.938Z,90.80
2017-07-11T12:25:44.886Z,92.30
2017-07-11T12:28:13.058Z,92.20
2017-07-11T12:30:41.216Z,91.50
2017-07-11T12:33:09.411Z,89.60
2017-07-11T12:35:37.574Z,85.70
2017-07-11T12:38:05.753Z,86.70
2017-07-11T12:40:33.957Z,82.70
2017-07-11T12:43:02.137Z,82.80
2017-07-11T12:45:30.314Z,85.20
2017-07-11T12:47:58.502Z,82.80
2017-07-11T12:50:27.453Z,77.00
2017-07-11T12:52:55.615Z,77.50
2017-07-11T12:55:23.810Z,73.70
2017-07-11T12:57:51.976Z,75.20
2017-07-11T13:00:20.156Z,73.90
2017-07-11T13:02:48.362Z,72.60
2017-07-11T13:05:17.306Z,67.30
2017-07-11T13:07:45.478Z,67.10
2017-07-11T13:10:13.680Z,70.70
2017-07-11T13:12:41.859Z,68.40
2017-07-11T13:15:10.012Z,71.30
2017-07-11T13:17:38.206Z,66.20
2017-07-11T13:20:06.367Z,66.40
2017-07-11T13:22:34.544Z,65.50
2017-07-11T13:25:02.724Z,66.30
2017-07-11T13:27:30.870Z,68.00
2017-07-11T13:29:59.033Z,67.30
2017-07-11T13:32:27.237Z,67.40
2017-07-11T13:34:55.394Z,68.20
2017-07-11T13:37:23.560Z,68.50
2017-07-11T13:39:51.754Z,68.60
2017-07-11T13:42:19.925Z,68.60
2017-07-11T13:44:48.114Z,68.20
2017-07-11T13:47:16.322Z,68.40
2017-07-11T13:49:45.247Z,70.90
2017-07-11T13:52:13.445Z,70.70
2017-07-11T13:54:41.669Z,71.50
2017-07-11T13:57:10.595Z,73.10
2017-07-11T13:59:38.749Z,73.10
2017-07-11T14:02:07.695Z,75.40
2017-07-11T14:04:35.849Z,75.20
2017-07-11T14:07:04.021Z,75.20
2017-07-11T14:09:32.221Z,76.80
2017-07-11T14:12:00.379Z,76.80
2017-07-11T14:14:28.578Z,77.80
2017-07-11T14:16:56.763Z,79.30
2017-07-11T14:19:24.941Z,77.70
2017-07-11T14:21:53.098Z,79.60
2017-07-11T14:24:22.069Z,77.90
2017-07-11T14:26:50.249Z,77.20
2017-07-11T14:29:18.429Z,77.50
2017-07-11T14:31:46.616Z,77.30
2017-07-11T14:34:14.787Z,76.50
2017-07-11T14:36:42.962Z,76.70
2017-07-11T14:39:11.148Z,77.30
2017-07-11T14:41:39.306Z,77.50
2017-07-11T14:44:07.454Z,78.70
2017-07-11T14:46:35.639Z,76.70
2017-07-11T14:49:03.791Z,77.00
2017-07-11T14:51:31.962Z,77.80
2017-07-11T14:54:00.163Z,76.40
2017-07-11T14:56:28.315Z,75.10
2017-07-11T14:58:56.481Z,74.10
2017-07-11T15:01:24.667Z,72.90
2017-07-11T15:03:52.832Z,72.90
2017-07-11T15:06:20.980Z,73.40
2017-07-11T15:08:49.924Z,72.50
2017-07-11T15:11:18.079Z,72.40
2017-07-11T15:13:46.227Z,69.60
2017-07-11T15:16:15.181Z,66.40
2017-07-11T15:18:43.326Z,66.30
2017-07-11T15:21:11.472Z,63.60
2017-07-11T15:23:39.665Z,63.60
2017-07-11T15:26:07.814Z,63.30
2017-07-11T15:28:35.966Z,63.70
2017-07-11T15:31:04.142Z,63.10
2017-07-11T15:33:32.291Z,64.30
2017-07-11T15:36:00.460Z,65.70
2017-07-11T15:38:28.654Z,64.00
2017-07-11T15:40:56.802Z,63.40
2017-07-11T15:43:24.971Z,65.10
2017-07-11T15:45:53.170Z,63.20
2017-07-11T15:48:21.319Z,62.70
2017-07-11T15:50:49.484Z,63.10
2017-07-11T15:53:18.435Z,61.50
2017-07-11T15:55:46.583Z,61.50
2017-07-11T15:58:14.757Z,62.30
2017-07-11T16:00:42.941Z,59.90
2017-07-11T16:03:11.094Z,59.00
2017-07-11T16:05:39.253Z,59.90
2017-07-11T16:08:08.225Z,59.90
2017-07-11T16:10:36.374Z,59.80
2017-07-11T16:13:04.542Z,59.90
2017-07-11T16:15:32.715Z,60.90
2017-07-11T16:18:00.881Z,59.60
2017-07-11T16:20:29.042Z,59.10
2017-07-11T16:22:58.569Z,60.10
2017-07-11T16:25:26.742Z,59.80
2017-07-11T16:27:54.891Z,58.60
2017-07-11T16:30:23.062Z,58.90
2017-07-11T16:32:51.228Z,58.50
2017-07-11T16:35:19.397Z,59.60
2017-07-11T16:37:48.465Z,60.00
2017-07-11T16:40:16.637Z,59.90
2017-07-11T16:42:44.827Z,60.10
2017-07-11T16:45:13.797Z,59.10
2017-07-11T16:47:41.958Z,59.10
2017-07-11T16:50:10.137Z,60.90
2017-07-11T16:52:38.323Z,60.60
2017-07-11T16:55:06.498Z,61.10
2017-07-11T16:57:34.673Z,61.80
2017-07-11T17:00:02.852Z,64.30
2017-07-11T17:02:31.014Z,70.50
2017-07-11T17:04:59.933Z,79.60
2017-07-11T17:07:28.157Z,79.50
2017-07-11T17:09:56.323Z,82.60
2017-07-11T17:12:24.502Z,86.40
2017-07-11T17:14:52.686Z,86.70
2017-07-11T17:17:20.845Z,86.10
2017-07-11T17:19:49.007Z,87.50
2017-07-11T17:22:17.189Z,87.40
2017-07-11T17:24:45.338Z,87.30
2017-07-11T17:27:13.494Z,86.80
2017-07-11T17:29:41.686Z,86.00
2017-07-11T17:32:09.858Z,85.70
2017-07-11T17:34:38.016Z,85.90
2017-07-11T17:37:06.634Z,86.10
2017-07-11T17:39:34.805Z,85.80
2017-07-11T17:42:02.985Z,85.60
2017-07-11T17:44:31.193Z,85.70
2017-07-11T17:46:59.350Z,86.80
2017-07-11T17:49:27.520Z,85.90
2017-07-11T17:51:55.717Z,85.50
2017-07-11T17:54:24.667Z,86.90
2017-07-11T17:56:52.833Z,86.00
2017-07-11T17:59:21.053Z,85.20
2017-07-11T18:01:49.234Z,84.10
2017-07-11T18:04:17.388Z,83.80
2017-07-11T18:06:45.605Z,84.50
2017-07-11T18:09:13.761Z,83.70
2017-07-11T18:11:42.687Z,84.20
2017-07-11T18:14:10.888Z,84.20
2017-07-11T18:16:39.067Z,85.70
2017-07-11T18:19:07.248Z,84.70
2017-07-11T18:21:35.427Z,84.50
2017-07-11T18:24:03.592Z,84.70
2017-07-11T18:26:31.751Z,85.40
2017-07-11T18:28:59.938Z,86.30
2017-07-11T18:31:28.114Z,86.10
2017-07-11T18:33:56.296Z,86.30
2017-07-11T18:36:24.485Z,87.20
2017-07-11T18:38:52.647Z,86.70
2017-07-11T18:41:20.810Z,86.80
2017-07-11T18:43:49.025Z,86.80
2017-07-11T18:46:17.973Z,85.70
2017-07-11T18:48:46.139Z,85.70
2017-07-11T18:51:14.349Z,85.80
2017-07-11T18:53:42.529Z,85.60
2017-07-11T18:56:10.712Z,85.40
2017-07-11T18:58:38.931Z,85.30
2017-07-11T19:01:07.094Z,85.00
2017-07-11T19:03:35.252Z,84.30
2017-07-11T19:06:04.210Z,84.60
2017-07-11T19:08:32.373Z,84.60
2017-07-11T19:11:00.529Z,84.00
2017-07-11T19:13:28.739Z,84.50
2017-07-11T19:15:56.915Z,84.20
2017-07-11T19:18:25.100Z,84.90
2017-07-11T19:20:53.309Z,83.40
2017-07-11T19:23:22.242Z,83.00
2017-07-11T19:25:50.401Z,82.90
2017-07-11T19:28:18.618Z,83.60
2017-07-11T19:30:46.810Z,83.80
2017-07-11T19:33:15.048Z,83.80
2017-07-11T19:35:43.235Z,83.20
2017-07-11T19:38:11.409Z,82.50
2017-07-11T19:40:39.565Z,81.60
2017-07-11T19:43:07.772Z,82.50
2017-07-11T19:45:35.935Z,83.20
2017-07-11T19:48:04.874Z,82.40
2017-07-11T19:50:33.077Z,82.40
2017-07-11T19:53:01.255Z,82.50
2017-07-11T19:55:29.429Z,82.50
2017-07-11T19:57:57.624Z,82.30
2017-07-11T20:00:26.565Z,83.00
2017-07-11T20:02:54.883Z,83.00
2017-07-11T20:05:23.079Z,82.40
2017-07-11T20:07:52.011Z,81.70
2017-07-11T20:10:20.172Z,81.70
2017-07-11T20:12:48.387Z,81.90
2017-07-11T20:15:16.561Z,81.70
2017-07-11T20:17:44.715Z,81.20
2017-07-11T20:20:12.942Z,81.00
2017-07-11T20:22:41.865Z,82.20
2017-07-11T20:25:10.023Z,82.20
2017-07-11T20:27:38.235Z,81.50
2017-07-11T20:30:06.394Z,81.40
2017-07-11T20:32:34.563Z,81.50
2017-07-11T20:35:02.778Z,81.30
2017-07-11T20:37:30.956Z,81.30
2017-07-11T20:39:59.119Z,81.60
2017-07-11T20:42:27.300Z,81.50
2017-07-11T20:44:55.485Z,82.40
2017-07-11T20:47:23.646Z,82.20
2017-07-11T20:49:51.825Z,82.30
2017-07-11T20:52:20.012Z,81.90
2017-07-11T20:54:48.176Z,82.10
2017-07-11T20:57:16.356Z,82.50
2017-07-11T20:59:44.530Z,82.90
2017-07-11T21:02:12.691Z,82.70
2017-07-11T21:04:40.881Z,82.90
2017-07-11T21:07:09.036Z,83.70
2017-07-11T21:09:37.202Z,83.20
2017-07-11T21:12:05.415Z,82.90
2017-07-11T21:14:33.579Z,83.40
2017-07-11T21:17:01.753Z,83.50
2017-07-11T21:19:29.964Z,82.50
2017-07-11T21:21:58.882Z,83.50
2017-07-11T21:24:27.134Z,83.50
2017-07-11T21:26:55.374Z,83.30
2017-07-11T21:29:23.547Z,83.90
2017-07-11T21:31:51.704Z,83.90
2017-07-11T21:34:19.911Z,84.00
2017-07-11T21:36:48.843Z,84.30
2017-07-11T21:39:17.030Z,84.10
2017-07-11T21:41:45.208Z,84.30
2017-07-11T21:44:13.402Z,84.90
2017-07-11T21:46:41.571Z,84.50
2017-07-11T21:49:09.774Z,84.60
2017-07-11T21:51:37.924Z,85.00
2017-07-11T21:54:06.084Z,84.90
2017-07-11T21:56:34.272Z,84.80
2017-07-11T21:59:02.420Z,85.20
2017-07-11T22:01:30.578Z,85.50
2017-07-11T22:03:59.303Z,85.80
2017-07-11T22:06:27.473Z,85.70
2017-07-11T22:08:55.644Z,85.60
2017-07-11T22:11:23.823Z,85.60
2017-07-11T22:13:52.174Z,85.40
2017-07-11T22:16:20.341Z,85.40
2017-07-11T22:18:48.556Z,85.40
2017-07-11T22:21:16.769Z,85.50
2017-07-11T22:23:45.716Z,85.80
2017-07-11T22:26:13.925Z,85.70
2017-07-11T22:28:42.112Z,85.40
2017-07-11T22:31:11.903Z,85.40
2017-07-11T22:33:40.110Z,85.40
2017-07-11T22:36:08.287Z,85.90
2017-07-11T22:38:36.450Z,86.20
2017-07-11T22:41:04.639Z,86.20
2017-07-11T22:43:32.809Z,86.10
2017-07-11T22:46:00.976Z,86.40
2017-07-11T22:48:29.163Z,86.20
2017-07-11T22:50:57.316Z,86.30
2017-07-11T22:53:26.395Z,86.20
2017-07-11T22:55:54.595Z,86.10
2017-07-11T22:58:23.534Z,86.00
2017-07-11T23:00:51.718Z,86.00
2017-07-11T23:03:19.905Z,86.00
2017-07-11T23:05:48.832Z,86.90
2017-07-11T23:08:16.991Z,86.80
2017-07-11T23:10:45.193Z,86.70
2017-07-11T23:13:13.358Z,87.30
2017-07-11T23:15:41.535Z,87.40
2017-07-11T23:18:09.723Z,86.50
2017-07-11T23:20:37.916Z,86.20
2017-07-11T23:23:06.093Z,86.20
2017-07-11T23:25:34.290Z,86.40
2017-07-11T23:28:03.214Z,86.80
2017-07-11T23:30:31.374Z,86.70
2017-07-11T23:32:59.558Z,86.60
2017-07-11T23:35:27.710Z,87.00
2017-07-11T23:37:55.863Z,88.10
2017-07-11T23:40:24.061Z,87.60
2017-07-11T23:42:53.000Z,87.80
2017-07-11T23:45:21.173Z,87.80
2017-07-11T23:47:49.372Z,87.90
2017-07-11T23:50:17.546Z,88.10
2017-07-11T23:52:45.698Z,88.40
2017-07-11T23:55:13.898Z,88.30
2017-07-11T23:57:42.046Z,87.70
